sensor_id;sensor_type;location;lat;lon;timestamp;temperature;humidity
9383;DHT22;4731;49.708;10.816;2023-04-10T00:00:32;4.60;99.90
9383;DHT22;4731;49.708;10.816;2023-04-10T00:02:59;4.60;99.90
9383;DHT22;4731;49.708;10.816;2023-04-10T00:05:28;4.60;99.90
9383;DHT22;4731;49.708;10.816;2023-04-10T00:07:55;4.80;99.90
9383;DHT22;4731;49.708;10.816;2023-04-10T00:10:22;4.60;99.90
9383;DHT22;4731;49.708;10.816;2023-04-10T00:12:50;4.60;99.90
9383;DHT22;4731;49.708;10.816;2023-04-10T00:15:20;4.60;99.90
9383;DHT22;4731;49.708;10.816;2023-04-10T00:17:47;4.60;99.90
9383;DHT22;4731;49.708;10.816;2023-04-10T00:20:19;4.50;99.90
9383;DHT22;4731;49.708;10.816;2023-04-10T00:22:47;4.50;99.90
9383;DHT22;4731;49.708;10.816;2023-04-10T00:25:14;4.50;99.90
9383;DHT22;4731;49.708;10.816;2023-04-10T00:27:42;4.50;99.90
9383;DHT22;4731;49.708;10.816;2023-04-10T00:30:09;4.40;99.90
9383;DHT22;4731;49.708;10.816;2023-04-10T00:32:37;4.40;99.90
9383;DHT22;4731;49.708;10.816;2023-04-10T00:35:04;4.30;99.90
9383;DHT22;4731;49.708;10.816;2023-04-10T00:37:31;4.20;99.90
9383;DHT22;4731;49.708;10.816;2023-04-10T00:39:59;4.20;99.90
9383;DHT22;4731;49.708;10.816;2023-04-10T00:42:26;4.10;99.90
9383;DHT22;4731;49.708;10.816;2023-04-10T00:44:53;4.10;99.90
9383;DHT22;4731;49.708;10.816;2023-04-10T00:47:20;4.10;99.90
9383;DHT22;4731;49.708;10.816;2023-04-10T00:49:47;4.10;99.90
9383;DHT22;4731;49.708;10.816;2023-04-10T00:52:14;4.10;99.90
9383;DHT22;4731;49.708;10.816;2023-04-10T00:54:41;4.00;99.90
9383;DHT22;4731;49.708;10.816;2023-04-10T00:57:10;4.00;99.90
9383;DHT22;4731;49.708;10.816;2023-04-10T00:59:37;4.00;99.90
9383;DHT22;4731;49.708;10.816;2023-04-10T01:02:04;4.00;99.90
9383;DHT22;4731;49.708;10.816;2023-04-10T01:04:32;4.00;99.90
9383;DHT22;4731;49.708;10.816;2023-04-10T01:07:07;4.00;99.90
9383;DHT22;4731;49.708;10.816;2023-04-10T01:09:40;3.90;99.90
9383;DHT22;4731;49.708;10.816;2023-04-10T01:12:28;3.90;99.90
9383;DHT22;4731;49.708;10.816;2023-04-10T01:15:06;3.80;99.90
9383;DHT22;4731;49.708;10.816;2023-04-10T01:17:39;4.50;99.90
9383;DHT22;4731;49.708;10.816;2023-04-10T01:20:11;2.80;99.90
9383;DHT22;4731;49.708;10.816;2023-04-10T01:22:48;3.70;99.90
9383;DHT22;4731;49.708;10.816;2023-04-10T01:25:37;3.70;99.90
9383;DHT22;4731;49.708;10.816;2023-04-10T01:31:06;3.70;99.90
9383;DHT22;4731;49.708;10.816;2023-04-10T01:33:39;3.60;99.90
9383;DHT22;4731;49.708;10.816;2023-04-10T01:36:08;3.60;99.90
9383;DHT22;4731;49.708;10.816;2023-04-10T01:38:36;5.10;99.90
9383;DHT22;4731;49.708;10.816;2023-04-10T01:41:06;3.60;99.90
9383;DHT22;4731;49.708;10.816;2023-04-10T01:43:33;3.50;99.90
9383;DHT22;4731;49.708;10.816;2023-04-10T01:46:02;3.50;99.90
9383;DHT22;4731;49.708;10.816;2023-04-10T01:48:30;3.40;99.90
9383;DHT22;4731;49.708;10.816;2023-04-10T01:50:59;3.40;99.90
9383;DHT22;4731;49.708;10.816;2023-04-10T01:53:27;3.40;99.90
9383;DHT22;4731;49.708;10.816;2023-04-10T01:55:56;3.40;99.90
9383;DHT22;4731;49.708;10.816;2023-04-10T01:58:23;3.30;99.90
9383;DHT22;4731;49.708;10.816;2023-04-10T02:00:50;3.20;99.90
9383;DHT22;4731;49.708;10.816;2023-04-10T02:03:17;3.20;99.90
9383;DHT22;4731;49.708;10.816;2023-04-10T02:05:54;3.20;99.90
9383;DHT22;4731;49.708;10.816;2023-04-10T02:08:27;3.10;99.90
9383;DHT22;4731;49.708;10.816;2023-04-10T02:11:00;3.10;99.90
9383;DHT22;4731;49.708;10.816;2023-04-10T02:13:28;3.10;99.90
9383;DHT22;4731;49.708;10.816;2023-04-10T02:15:59;3.10;99.90
9383;DHT22;4731;49.708;10.816;2023-04-10T02:18:29;3.00;99.90
9383;DHT22;4731;49.708;10.816;2023-04-10T02:23:26;3.00;99.90
9383;DHT22;4731;49.708;10.816;2023-04-10T02:25:53;3.00;99.90
9383;DHT22;4731;49.708;10.816;2023-04-10T02:28:21;2.90;99.90
9383;DHT22;4731;49.708;10.816;2023-04-10T02:30:48;2.80;99.90
9383;DHT22;4731;49.708;10.816;2023-04-10T02:33:15;2.80;99.90
9383;DHT22;4731;49.708;10.816;2023-04-10T02:35:41;2.80;99.90
9383;DHT22;4731;49.708;10.816;2023-04-10T02:38:10;2.80;99.90
9383;DHT22;4731;49.708;10.816;2023-04-10T02:40:36;2.80;99.90
9383;DHT22;4731;49.708;10.816;2023-04-10T02:43:03;2.80;99.90
9383;DHT22;4731;49.708;10.816;2023-04-10T02:45:30;2.80;99.90
9383;DHT22;4731;49.708;10.816;2023-04-10T02:47:57;2.80;99.90
9383;DHT22;4731;49.708;10.816;2023-04-10T02:50:24;2.80;99.90
9383;DHT22;4731;49.708;10.816;2023-04-10T02:52:54;4.60;99.90
9383;DHT22;4731;49.708;10.816;2023-04-10T02:55:22;2.60;99.90
9383;DHT22;4731;49.708;10.816;2023-04-10T02:57:49;2.70;99.90
9383;DHT22;4731;49.708;10.816;2023-04-10T03:00:16;2.60;99.90
9383;DHT22;4731;49.708;10.816;2023-04-10T03:02:43;2.60;99.90
9383;DHT22;4731;49.708;10.816;2023-04-10T03:05:10;2.60;99.90
9383;DHT22;4731;49.708;10.816;2023-04-10T03:07:39;2.60;99.90
9383;DHT22;4731;49.708;10.816;2023-04-10T03:10:07;2.50;99.90
9383;DHT22;4731;49.708;10.816;2023-04-10T03:15:03;2.50;99.90
9383;DHT22;4731;49.708;10.816;2023-04-10T03:17:30;2.50;99.90
9383;DHT22;4731;49.708;10.816;2023-04-10T03:19:57;3.30;99.90
9383;DHT22;4731;49.708;10.816;2023-04-10T03:22:24;2.50;99.90
9383;DHT22;4731;49.708;10.816;2023-04-10T03:24:52;2.40;99.90
9383;DHT22;4731;49.708;10.816;2023-04-10T03:27:18;2.40;99.90
9383;DHT22;4731;49.708;10.816;2023-04-10T03:29:47;2.40;99.90
9383;DHT22;4731;49.708;10.816;2023-04-10T03:32:14;2.40;99.90
9383;DHT22;4731;49.708;10.816;2023-04-10T03:34:40;2.40;99.90
9383;DHT22;4731;49.708;10.816;2023-04-10T03:37:07;2.90;99.90
9383;DHT22;4731;49.708;10.816;2023-04-10T03:42:01;2.40;99.90
9383;DHT22;4731;49.708;10.816;2023-04-10T03:44:28;2.40;99.90
9383;DHT22;4731;49.708;10.816;2023-04-10T03:46:56;2.40;99.90
9383;DHT22;4731;49.708;10.816;2023-04-10T03:49:23;2.10;99.90
9383;DHT22;4731;49.708;10.816;2023-04-10T03:51:49;2.20;99.90
9383;DHT22;4731;49.708;10.816;2023-04-10T03:54:16;2.20;99.90
9383;DHT22;4731;49.708;10.816;2023-04-10T03:56:43;2.10;99.90
9383;DHT22;4731;49.708;10.816;2023-04-10T03:59:10;2.20;99.90
9383;DHT22;4731;49.708;10.816;2023-04-10T04:01:36;2.10;99.90
9383;DHT22;4731;49.708;10.816;2023-04-10T04:04:05;2.10;99.90
9383;DHT22;4731;49.708;10.816;2023-04-10T04:09:01;1.90;99.90
9383;DHT22;4731;49.708;10.816;2023-04-10T04:11:28;1.90;99.90
9383;DHT22;4731;49.708;10.816;2023-04-10T04:13:55;1.90;99.90
9383;DHT22;4731;49.708;10.816;2023-04-10T04:16:22;1.90;99.90
9383;DHT22;4731;49.708;10.816;2023-04-10T04:18:49;1.80;99.90
9383;DHT22;4731;49.708;10.816;2023-04-10T04:23:44;1.80;99.90
9383;DHT22;4731;49.708;10.816;2023-04-10T04:26:11;1.70;99.90
9383;DHT22;4731;49.708;10.816;2023-04-10T04:28:37;1.80;99.90
9383;DHT22;4731;49.708;10.816;2023-04-10T04:31:06;1.80;99.90
9383;DHT22;4731;49.708;10.816;2023-04-10T04:33:32;1.80;99.90
9383;DHT22;4731;49.708;10.816;2023-04-10T04:35:59;1.80;99.90
9383;DHT22;4731;49.708;10.816;2023-04-10T04:38:27;1.80;99.90
9383;DHT22;4731;49.708;10.816;2023-04-10T04:40:54;1.80;99.90
9383;DHT22;4731;49.708;10.816;2023-04-10T04:43:21;1.70;99.90
9383;DHT22;4731;49.708;10.816;2023-04-10T04:45:48;1.80;99.90
9383;DHT22;4731;49.708;10.816;2023-04-10T04:48:25;1.80;99.90
9383;DHT22;4731;49.708;10.816;2023-04-10T04:50:51;1.70;99.90
9383;DHT22;4731;49.708;10.816;2023-04-10T04:53:18;1.80;99.90
9383;DHT22;4731;49.708;10.816;2023-04-10T04:55:44;1.80;99.90
9383;DHT22;4731;49.708;10.816;2023-04-10T04:58:11;1.80;99.90
9383;DHT22;4731;49.708;10.816;2023-04-10T05:00:38;1.80;99.90
9383;DHT22;4731;49.708;10.816;2023-04-10T05:03:05;1.90;99.90
9383;DHT22;4731;49.708;10.816;2023-04-10T05:05:33;2.00;99.90
9383;DHT22;4731;49.708;10.816;2023-04-10T05:08:01;2.10;99.90
9383;DHT22;4731;49.708;10.816;2023-04-10T05:10:28;2.20;99.90
9383;DHT22;4731;49.708;10.816;2023-04-10T05:12:55;2.10;99.90
9383;DHT22;4731;49.708;10.816;2023-04-10T05:15:22;2.10;99.90
9383;DHT22;4731;49.708;10.816;2023-04-10T05:17:48;2.10;99.90
9383;DHT22;4731;49.708;10.816;2023-04-10T05:20:17;2.10;99.90
9383;DHT22;4731;49.708;10.816;2023-04-10T05:22:47;2.10;99.90
9383;DHT22;4731;49.708;10.816;2023-04-10T05:25:14;2.20;99.90
9383;DHT22;4731;49.708;10.816;2023-04-10T05:27:40;2.30;99.90
9383;DHT22;4731;49.708;10.816;2023-04-10T05:30:08;2.40;99.90
9383;DHT22;4731;49.708;10.816;2023-04-10T05:32:35;2.40;99.90
9383;DHT22;4731;49.708;10.816;2023-04-10T05:35:02;2.60;99.90
9383;DHT22;4731;49.708;10.816;2023-04-10T05:37:28;2.70;99.90
9383;DHT22;4731;49.708;10.816;2023-04-10T05:39:56;2.80;99.90
9383;DHT22;4731;49.708;10.816;2023-04-10T05:42:23;2.90;99.90
9383;DHT22;4731;49.708;10.816;2023-04-10T05:44:50;3.20;99.90
9383;DHT22;4731;49.708;10.816;2023-04-10T05:47:17;3.30;99.90
9383;DHT22;4731;49.708;10.816;2023-04-10T05:49:44;3.40;99.90
9383;DHT22;4731;49.708;10.816;2023-04-10T05:52:11;3.40;99.90
9383;DHT22;4731;49.708;10.816;2023-04-10T05:54:37;3.50;99.90
9383;DHT22;4731;49.708;10.816;2023-04-10T05:57:05;3.70;99.90
9383;DHT22;4731;49.708;10.816;2023-04-10T05:59:32;3.80;99.90
9383;DHT22;4731;49.708;10.816;2023-04-10T06:01:59;4.20;99.90
9383;DHT22;4731;49.708;10.816;2023-04-10T06:04:26;4.50;99.90
9383;DHT22;4731;49.708;10.816;2023-04-10T06:06:52;4.60;99.90
9383;DHT22;4731;49.708;10.816;2023-04-10T06:09:19;5.60;99.90
9383;DHT22;4731;49.708;10.816;2023-04-10T06:11:46;6.50;99.90
9383;DHT22;4731;49.708;10.816;2023-04-10T06:14:14;7.00;99.90
9383;DHT22;4731;49.708;10.816;2023-04-10T06:16:41;8.00;99.90
9383;DHT22;4731;49.708;10.816;2023-04-10T06:19:07;8.50;99.90
9383;DHT22;4731;49.708;10.816;2023-04-10T06:21:34;8.80;99.90
9383;DHT22;4731;49.708;10.816;2023-04-10T06:24:01;8.90;99.90
9383;DHT22;4731;49.708;10.816;2023-04-10T06:26:27;9.20;99.90
9383;DHT22;4731;49.708;10.816;2023-04-10T06:28:54;9.30;99.90
9383;DHT22;4731;49.708;10.816;2023-04-10T06:31:23;9.20;99.90
9383;DHT22;4731;49.708;10.816;2023-04-10T06:33:50;9.10;99.90
9383;DHT22;4731;49.708;10.816;2023-04-10T06:36:16;9.60;99.90
9383;DHT22;4731;49.708;10.816;2023-04-10T06:38:43;10.30;99.90
9383;DHT22;4731;49.708;10.816;2023-04-10T06:41:10;11.30;99.90
9383;DHT22;4731;49.708;10.816;2023-04-10T06:43:38;10.20;99.90
9383;DHT22;4731;49.708;10.816;2023-04-10T06:46:05;9.60;99.90
9383;DHT22;4731;49.708;10.816;2023-04-10T06:48:33;9.90;99.90
9383;DHT22;4731;49.708;10.816;2023-04-10T06:51:00;9.50;99.90
9383;DHT22;4731;49.708;10.816;2023-04-10T06:53:27;10.10;99.90
9383;DHT22;4731;49.708;10.816;2023-04-10T06:55:55;11.00;99.90
9383;DHT22;4731;49.708;10.816;2023-04-10T06:58:22;11.80;99.90
9383;DHT22;4731;49.708;10.816;2023-04-10T07:00:49;13.10;99.90
9383;DHT22;4731;49.708;10.816;2023-04-10T07:03:15;13.50;99.90
9383;DHT22;4731;49.708;10.816;2023-04-10T07:05:43;14.20;99.90
9383;DHT22;4731;49.708;10.816;2023-04-10T07:08:10;14.00;99.90
9383;DHT22;4731;49.708;10.816;2023-04-10T07:10:37;14.80;99.90
9383;DHT22;4731;49.708;10.816;2023-04-10T07:13:04;15.50;99.90
9383;DHT22;4731;49.708;10.816;2023-04-10T07:15:31;15.40;99.90
9383;DHT22;4731;49.708;10.816;2023-04-10T07:17:59;14.30;99.90
9383;DHT22;4731;49.708;10.816;2023-04-10T07:20:26;15.20;99.90
9383;DHT22;4731;49.708;10.816;2023-04-10T07:22:54;14.20;99.90
9383;DHT22;4731;49.708;10.816;2023-04-10T07:25:20;12.30;99.90
9383;DHT22;4731;49.708;10.816;2023-04-10T07:27:47;12.50;99.90
9383;DHT22;4731;49.708;10.816;2023-04-10T07:30:14;12.50;99.90
9383;DHT22;4731;49.708;10.816;2023-04-10T07:32:41;15.00;99.90
9383;DHT22;4731;49.708;10.816;2023-04-10T07:35:08;15.70;99.90
9383;DHT22;4731;49.708;10.816;2023-04-10T07:37:35;14.20;99.90
9383;DHT22;4731;49.708;10.816;2023-04-10T07:40:09;15.70;99.90
9383;DHT22;4731;49.708;10.816;2023-04-10T07:42:39;13.70;99.90
9383;DHT22;4731;49.708;10.816;2023-04-10T07:45:07;13.90;99.90
9383;DHT22;4731;49.708;10.816;2023-04-10T07:47:34;13.70;99.90
9383;DHT22;4731;49.708;10.816;2023-04-10T07:50:00;14.30;99.90
9383;DHT22;4731;49.708;10.816;2023-04-10T07:52:27;16.30;99.90
9383;DHT22;4731;49.708;10.816;2023-04-10T07:54:54;16.00;99.90
9383;DHT22;4731;49.708;10.816;2023-04-10T07:57:22;15.50;99.90
9383;DHT22;4731;49.708;10.816;2023-04-10T07:59:50;15.90;99.90
9383;DHT22;4731;49.708;10.816;2023-04-10T08:02:16;18.10;99.90
9383;DHT22;4731;49.708;10.816;2023-04-10T08:04:44;13.90;99.90
9383;DHT22;4731;49.708;10.816;2023-04-10T08:07:19;13.70;99.90
9383;DHT22;4731;49.708;10.816;2023-04-10T08:09:46;15.10;99.90
9383;DHT22;4731;49.708;10.816;2023-04-10T08:12:13;14.60;99.90
9383;DHT22;4731;49.708;10.816;2023-04-10T08:14:41;15.40;99.90
9383;DHT22;4731;49.708;10.816;2023-04-10T08:19:39;14.50;99.90
9383;DHT22;4731;49.708;10.816;2023-04-10T08:22:06;14.50;99.90
9383;DHT22;4731;49.708;10.816;2023-04-10T08:31:56;15.70;99.90
9383;DHT22;4731;49.708;10.816;2023-04-10T08:34:25;15.60;99.90
9383;DHT22;4731;49.708;10.816;2023-04-10T08:36:52;15.80;99.90
9383;DHT22;4731;49.708;10.816;2023-04-10T08:41:46;16.30;99.90
9383;DHT22;4731;49.708;10.816;2023-04-10T08:44:13;18.50;99.90
9383;DHT22;4731;49.708;10.816;2023-04-10T08:46:42;16.10;99.90
9383;DHT22;4731;49.708;10.816;2023-04-10T08:49:16;16.00;99.90
9383;DHT22;4731;49.708;10.816;2023-04-10T08:51:46;16.40;99.90
9383;DHT22;4731;49.708;10.816;2023-04-10T08:54:17;16.90;99.90
9383;DHT22;4731;49.708;10.816;2023-04-10T08:56:49;16.70;99.90
9383;DHT22;4731;49.708;10.816;2023-04-10T08:59:16;19.30;99.90
9383;DHT22;4731;49.708;10.816;2023-04-10T09:01:43;16.40;99.90
9383;DHT22;4731;49.708;10.816;2023-04-10T09:04:23;17.80;99.90
9383;DHT22;4731;49.708;10.816;2023-04-10T09:06:51;15.90;99.90
9383;DHT22;4731;49.708;10.816;2023-04-10T09:09:19;15.20;99.90
9383;DHT22;4731;49.708;10.816;2023-04-10T09:11:56;15.50;99.90
9383;DHT22;4731;49.708;10.816;2023-04-10T09:14:26;17.10;99.90
9383;DHT22;4731;49.708;10.816;2023-04-10T09:17:06;17.80;99.90
9383;DHT22;4731;49.708;10.816;2023-04-10T09:19:37;20.80;99.90
9383;DHT22;4731;49.708;10.816;2023-04-10T09:22:18;17.50;99.90
9383;DHT22;4731;49.708;10.816;2023-04-10T09:25:03;16.50;99.90
9383;DHT22;4731;49.708;10.816;2023-04-10T09:27:44;16.40;99.90
9383;DHT22;4731;49.708;10.816;2023-04-10T09:30:32;16.80;99.90
9383;DHT22;4731;49.708;10.816;2023-04-10T09:33:02;16.80;99.90
9383;DHT22;4731;49.708;10.816;2023-04-10T09:35:37;17.90;99.90
9383;DHT22;4731;49.708;10.816;2023-04-10T09:38:21;17.30;99.90
9383;DHT22;4731;49.708;10.816;2023-04-10T09:40:50;17.50;99.90
9383;DHT22;4731;49.708;10.816;2023-04-10T09:43:21;17.00;99.90
9383;DHT22;4731;49.708;10.816;2023-04-10T09:45:49;16.70;99.90
9383;DHT22;4731;49.708;10.816;2023-04-10T09:48:20;17.40;99.90
9383;DHT22;4731;49.708;10.816;2023-04-10T09:50:49;19.10;99.90
9383;DHT22;4731;49.708;10.816;2023-04-10T09:53:17;18.70;99.90
9383;DHT22;4731;49.708;10.816;2023-04-10T09:55:55;18.60;99.90
9383;DHT22;4731;49.708;10.816;2023-04-10T09:58:23;18.10;99.90
9383;DHT22;4731;49.708;10.816;2023-04-10T10:00:51;19.20;99.90
9383;DHT22;4731;49.708;10.816;2023-04-10T10:03:20;20.30;99.90
9383;DHT22;4731;49.708;10.816;2023-04-10T10:05:49;19.30;99.90
9383;DHT22;4731;49.708;10.816;2023-04-10T10:08:17;19.10;99.90
9383;DHT22;4731;49.708;10.816;2023-04-10T10:10:45;18.60;99.90
9383;DHT22;4731;49.708;10.816;2023-04-10T10:13:15;19.80;99.90
9383;DHT22;4731;49.708;10.816;2023-04-10T10:15:47;18.30;99.90
9383;DHT22;4731;49.708;10.816;2023-04-10T10:18:20;17.40;99.90
9383;DHT22;4731;49.708;10.816;2023-04-10T10:20:50;19.40;99.90
9383;DHT22;4731;49.708;10.816;2023-04-10T10:23:18;19.90;99.90
9383;DHT22;4731;49.708;10.816;2023-04-10T10:25:45;18.10;99.90
9383;DHT22;4731;49.708;10.816;2023-04-10T10:28:14;18.10;99.90
9383;DHT22;4731;49.708;10.816;2023-04-10T10:30:42;18.00;99.90
9383;DHT22;4731;49.708;10.816;2023-04-10T10:33:11;17.40;99.90
9383;DHT22;4731;49.708;10.816;2023-04-10T10:35:39;19.20;99.90
9383;DHT22;4731;49.708;10.816;2023-04-10T10:38:09;18.50;99.90
9383;DHT22;4731;49.708;10.816;2023-04-10T10:40:41;18.60;99.90
9383;DHT22;4731;49.708;10.816;2023-04-10T10:43:17;19.00;99.90
9383;DHT22;4731;49.708;10.816;2023-04-10T10:45:53;21.00;99.90
9383;DHT22;4731;49.708;10.816;2023-04-10T10:48:22;21.10;99.90
9383;DHT22;4731;49.708;10.816;2023-04-10T10:50:53;21.50;99.90
9383;DHT22;4731;49.708;10.816;2023-04-10T10:53:36;22.10;99.90
9383;DHT22;4731;49.708;10.816;2023-04-10T10:56:32;20.60;99.90
9383;DHT22;4731;49.708;10.816;2023-04-10T10:59:00;19.00;99.90
9383;DHT22;4731;49.708;10.816;2023-04-10T11:01:27;20.70;99.90
9383;DHT22;4731;49.708;10.816;2023-04-10T11:03:54;21.60;99.90
9383;DHT22;4731;49.708;10.816;2023-04-10T11:06:49;18.80;99.90
9383;DHT22;4731;49.708;10.816;2023-04-10T11:09:42;19.20;99.90
9383;DHT22;4731;49.708;10.816;2023-04-10T11:12:10;19.80;99.90
9383;DHT22;4731;49.708;10.816;2023-04-10T11:14:38;18.80;99.90
9383;DHT22;4731;49.708;10.816;2023-04-10T11:17:07;20.30;99.90
9383;DHT22;4731;49.708;10.816;2023-04-10T11:19:56;21.80;98.90
9383;DHT22;4731;49.708;10.816;2023-04-10T11:22:25;19.20;99.90
9383;DHT22;4731;49.708;10.816;2023-04-10T11:24:56;20.50;99.90
9383;DHT22;4731;49.708;10.816;2023-04-10T11:27:45;19.80;99.90
9383;DHT22;4731;49.708;10.816;2023-04-10T11:30:30;19.60;99.90
9383;DHT22;4731;49.708;10.816;2023-04-10T11:33:00;21.40;99.90
9383;DHT22;4731;49.708;10.816;2023-04-10T11:35:30;19.70;99.10
9383;DHT22;4731;49.708;10.816;2023-04-10T11:38:28;19.90;99.90
9383;DHT22;4731;49.708;10.816;2023-04-10T11:41:06;18.50;99.90
9383;DHT22;4731;49.708;10.816;2023-04-10T11:46:08;19.30;99.90
9383;DHT22;4731;49.708;10.816;2023-04-10T11:48:36;18.40;99.90
9383;DHT22;4731;49.708;10.816;2023-04-10T11:51:09;17.80;99.90
9383;DHT22;4731;49.708;10.816;2023-04-10T11:53:40;18.30;99.90
9383;DHT22;4731;49.708;10.816;2023-04-10T11:58:50;21.10;99.10
9383;DHT22;4731;49.708;10.816;2023-04-10T12:01:21;20.60;99.80
9383;DHT22;4731;49.708;10.816;2023-04-10T12:03:51;19.80;98.10
9383;DHT22;4731;49.708;10.816;2023-04-10T12:06:19;19.20;97.00
9383;DHT22;4731;49.708;10.816;2023-04-10T12:18:55;20.30;97.30
9383;DHT22;4731;49.708;10.816;2023-04-10T12:39:23;19.50;96.20
9383;DHT22;4731;49.708;10.816;2023-04-10T12:41:52;19.50;96.20
9383;DHT22;4731;49.708;10.816;2023-04-10T12:44:19;19.60;97.60
9383;DHT22;4731;49.708;10.816;2023-04-10T12:46:46;20.30;95.60
9383;DHT22;4731;49.708;10.816;2023-04-10T12:49:14;20.10;95.70
9383;DHT22;4731;49.708;10.816;2023-04-10T12:51:46;19.60;94.90
9383;DHT22;4731;49.708;10.816;2023-04-10T12:54:31;18.20;95.50
9383;DHT22;4731;49.708;10.816;2023-04-10T12:56:58;18.90;94.40
9383;DHT22;4731;49.708;10.816;2023-04-10T12:59:26;19.20;94.30
9383;DHT22;4731;49.708;10.816;2023-04-10T13:01:54;18.00;96.50
9383;DHT22;4731;49.708;10.816;2023-04-10T13:04:22;18.00;96.50
9383;DHT22;4731;49.708;10.816;2023-04-10T13:06:49;18.30;98.20
9383;DHT22;4731;49.708;10.816;2023-04-10T13:09:18;17.70;98.40
9383;DHT22;4731;49.708;10.816;2023-04-10T13:11:46;17.80;98.10
9383;DHT22;4731;49.708;10.816;2023-04-10T13:14:13;18.20;98.30
9383;DHT22;4731;49.708;10.816;2023-04-10T13:16:41;18.30;98.20
9383;DHT22;4731;49.708;10.816;2023-04-10T13:19:09;19.00;99.10
9383;DHT22;4731;49.708;10.816;2023-04-10T13:21:38;19.30;97.20
9383;DHT22;4731;49.708;10.816;2023-04-10T13:31:29;18.10;97.70
9383;DHT22;4731;49.708;10.816;2023-04-10T13:48:45;17.50;99.30
9383;DHT22;4731;49.708;10.816;2023-04-10T13:51:13;17.70;97.20
9383;DHT22;4731;49.708;10.816;2023-04-10T13:56:08;17.40;99.00
9383;DHT22;4731;49.708;10.816;2023-04-10T13:58:36;17.30;99.20
9383;DHT22;4731;49.708;10.816;2023-04-10T14:01:03;18.50;99.90
9383;DHT22;4731;49.708;10.816;2023-04-10T14:03:33;17.90;99.90
9383;DHT22;4731;49.708;10.816;2023-04-10T14:06:00;17.20;99.70
9383;DHT22;4731;49.708;10.816;2023-04-10T14:08:30;17.30;99.40
9383;DHT22;4731;49.708;10.816;2023-04-10T14:10:59;17.60;98.80
9383;DHT22;4731;49.708;10.816;2023-04-10T14:13:27;17.10;99.90
9383;DHT22;4731;49.708;10.816;2023-04-10T14:15:54;17.00;99.70
9383;DHT22;4731;49.708;10.816;2023-04-10T14:18:23;17.00;99.90
9383;DHT22;4731;49.708;10.816;2023-04-10T14:20:54;20.00;99.90
9383;DHT22;4731;49.708;10.816;2023-04-10T14:25:49;16.90;99.90
9383;DHT22;4731;49.708;10.816;2023-04-10T14:28:16;17.00;99.90
9383;DHT22;4731;49.708;10.816;2023-04-10T14:30:43;16.80;99.90
9383;DHT22;4731;49.708;10.816;2023-04-10T14:33:11;16.50;99.90
9383;DHT22;4731;49.708;10.816;2023-04-10T14:35:38;18.00;99.90
9383;DHT22;4731;49.708;10.816;2023-04-10T14:40:37;17.30;99.90
9383;DHT22;4731;49.708;10.816;2023-04-10T14:43:06;17.30;99.90
9383;DHT22;4731;49.708;10.816;2023-04-10T14:45:33;19.40;99.90
9383;DHT22;4731;49.708;10.816;2023-04-10T14:48:01;16.30;99.90
9383;DHT22;4731;49.708;10.816;2023-04-10T14:50:30;16.20;99.90
9383;DHT22;4731;49.708;10.816;2023-04-10T14:52:57;16.20;99.90
9383;DHT22;4731;49.708;10.816;2023-04-10T14:55:27;15.90;99.90
9383;DHT22;4731;49.708;10.816;2023-04-10T14:57:55;16.00;99.90
9383;DHT22;4731;49.708;10.816;2023-04-10T15:00:23;16.10;99.90
9383;DHT22;4731;49.708;10.816;2023-04-10T15:02:50;16.20;99.90
9383;DHT22;4731;49.708;10.816;2023-04-10T15:05:18;16.10;99.90
9383;DHT22;4731;49.708;10.816;2023-04-10T15:07:45;16.20;99.90
9383;DHT22;4731;49.708;10.816;2023-04-10T15:10:12;15.90;99.90
9383;DHT22;4731;49.708;10.816;2023-04-10T15:12:40;16.10;99.90
9383;DHT22;4731;49.708;10.816;2023-04-10T15:15:08;16.20;99.90
9383;DHT22;4731;49.708;10.816;2023-04-10T15:17:36;16.30;99.90
9383;DHT22;4731;49.708;10.816;2023-04-10T15:20:03;16.40;99.90
9383;DHT22;4731;49.708;10.816;2023-04-10T15:22:30;15.90;99.90
9383;DHT22;4731;49.708;10.816;2023-04-10T15:27:25;15.80;99.90
9383;DHT22;4731;49.708;10.816;2023-04-10T15:29:54;15.60;99.90
9383;DHT22;4731;49.708;10.816;2023-04-10T15:32:21;15.50;99.90
9383;DHT22;4731;49.708;10.816;2023-04-10T15:34:48;15.70;99.90
9383;DHT22;4731;49.708;10.816;2023-04-10T15:37:15;18.00;99.90
9383;DHT22;4731;49.708;10.816;2023-04-10T15:39:42;16.00;99.90
9383;DHT22;4731;49.708;10.816;2023-04-10T15:42:09;18.00;99.90
9383;DHT22;4731;49.708;10.816;2023-04-10T15:44:36;16.00;99.90
9383;DHT22;4731;49.708;10.816;2023-04-10T15:47:04;16.00;99.90
9383;DHT22;4731;49.708;10.816;2023-04-10T15:49:31;16.10;99.90
9383;DHT22;4731;49.708;10.816;2023-04-10T15:51:58;15.90;99.90
9383;DHT22;4731;49.708;10.816;2023-04-10T15:54:25;15.70;99.90
9383;DHT22;4731;49.708;10.816;2023-04-10T15:56:52;15.60;99.90
9383;DHT22;4731;49.708;10.816;2023-04-10T15:59:19;15.90;99.90
9383;DHT22;4731;49.708;10.816;2023-04-10T16:04:14;16.00;99.90
9383;DHT22;4731;49.708;10.816;2023-04-10T16:06:41;15.80;99.90
9383;DHT22;4731;49.708;10.816;2023-04-10T16:11:37;15.90;99.90
9383;DHT22;4731;49.708;10.816;2023-04-10T16:16:32;15.70;99.90
9383;DHT22;4731;49.708;10.816;2023-04-10T16:21:27;15.60;99.90
9383;DHT22;4731;49.708;10.816;2023-04-10T16:23:57;19.10;99.90
9383;DHT22;4731;49.708;10.816;2023-04-10T16:26:25;15.70;99.90
9383;DHT22;4731;49.708;10.816;2023-04-10T16:28:52;15.60;99.90
9383;DHT22;4731;49.708;10.816;2023-04-10T16:31:19;15.50;99.90
9383;DHT22;4731;49.708;10.816;2023-04-10T16:36:14;15.30;99.90
9383;DHT22;4731;49.708;10.816;2023-04-10T16:38:42;15.20;99.90
9383;DHT22;4731;49.708;10.816;2023-04-10T16:41:14;18.60;99.90
9383;DHT22;4731;49.708;10.816;2023-04-10T16:43:42;15.20;99.90
9383;DHT22;4731;49.708;10.816;2023-04-10T16:46:09;15.10;99.90
9383;DHT22;4731;49.708;10.816;2023-04-10T16:48:37;15.90;99.90
9383;DHT22;4731;49.708;10.816;2023-04-10T16:51:08;15.00;99.90
9383;DHT22;4731;49.708;10.816;2023-04-10T16:53:41;15.00;99.90
9383;DHT22;4731;49.708;10.816;2023-04-10T16:56:08;15.10;99.90
9383;DHT22;4731;49.708;10.816;2023-04-10T16:58:35;15.00;99.90
9383;DHT22;4731;49.708;10.816;2023-04-10T17:01:12;17.40;99.90
9383;DHT22;4731;49.708;10.816;2023-04-10T17:03:39;14.80;99.90
9383;DHT22;4731;49.708;10.816;2023-04-10T17:06:06;14.70;99.90
9383;DHT22;4731;49.708;10.816;2023-04-10T17:08:33;14.60;99.90
9383;DHT22;4731;49.708;10.816;2023-04-10T17:11:01;14.70;99.90
9383;DHT22;4731;49.708;10.816;2023-04-10T17:13:28;15.50;99.90
9383;DHT22;4731;49.708;10.816;2023-04-10T17:16:05;14.50;99.90
9383;DHT22;4731;49.708;10.816;2023-04-10T17:18:32;14.30;99.90
9383;DHT22;4731;49.708;10.816;2023-04-10T17:20:59;14.90;99.90
9383;DHT22;4731;49.708;10.816;2023-04-10T17:23:25;15.90;99.90
9383;DHT22;4731;49.708;10.816;2023-04-10T17:25:54;14.10;99.90
9383;DHT22;4731;49.708;10.816;2023-04-10T17:28:23;16.90;99.90
9383;DHT22;4731;49.708;10.816;2023-04-10T17:30:49;15.40;99.90
9383;DHT22;4731;49.708;10.816;2023-04-10T17:33:17;13.90;99.90
9383;DHT22;4731;49.708;10.816;2023-04-10T17:35:46;13.80;99.90
9383;DHT22;4731;49.708;10.816;2023-04-10T17:38:16;13.80;99.90
9383;DHT22;4731;49.708;10.816;2023-04-10T17:40:43;13.80;99.90
9383;DHT22;4731;49.708;10.816;2023-04-10T17:43:10;13.80;99.90
9383;DHT22;4731;49.708;10.816;2023-04-10T17:45:39;13.70;99.90
9383;DHT22;4731;49.708;10.816;2023-04-10T17:48:06;13.60;99.90